createdAt,value
2022-12-18T00:01:00.206Z,99471.38
2022-12-18T00:02:02.016Z,99470.56
2022-12-18T00:03:03.852Z,99467.09
2022-12-18T00:04:09.077Z,99467.47
2022-12-18T00:05:10.978Z,99467.69
2022-12-18T00:06:13.182Z,99477.41
2022-12-18T00:07:14.868Z,99476.16
2022-12-18T00:08:17.349Z,99486.50
2022-12-18T00:09:19.049Z,99478.47
2022-12-18T00:10:20.714Z,99466.03
2022-12-18T00:11:24.820Z,99494.69
2022-12-18T00:12:29.807Z,99486.00
2022-12-18T00:13:32.077Z,99490.19
2022-12-18T00:14:34.242Z,99488.44
2022-12-18T00:15:36.848Z,99490.81
2022-12-18T00:16:38.629Z,99497.56
2022-12-18T00:17:40.331Z,99491.28
2022-12-18T00:18:43.002Z,99492.50
2022-12-18T00:19:44.689Z,99494.97
2022-12-18T00:20:46.365Z,99510.59
2022-12-18T00:21:48.025Z,99507.53
2022-12-18T00:22:49.687Z,99508.38
2022-12-18T00:23:51.726Z,99504.53
2022-12-18T00:24:53.413Z,99505.94
2022-12-18T00:25:55.229Z,99479.44
2022-12-18T00:26:56.900Z,99523.69
2022-12-18T00:27:58.564Z,99515.53
2022-12-18T00:29:02.472Z,99526.72
2022-12-18T00:30:04.843Z,99522.25
2022-12-18T00:31:09.327Z,99518.38
2022-12-18T00:32:11.024Z,99531.41
2022-12-18T00:33:12.712Z,99531.22
2022-12-18T00:34:14.735Z,99530.41
2022-12-18T00:35:16.462Z,99534.06
2022-12-18T00:36:23.803Z,99538.53
2022-12-18T00:37:25.471Z,99542.97
2022-12-18T00:38:27.168Z,99541.97
2022-12-18T00:39:28.892Z,99544.44
2022-12-18T00:40:30.618Z,99540.34
2022-12-18T00:41:51.406Z,99552.16
2022-12-18T00:42:59.351Z,99543.75
2022-12-18T00:44:01.339Z,99551.50
2022-12-18T00:45:07.625Z,99559.22
2022-12-18T00:46:12.465Z,99543.09
2022-12-18T00:47:14.160Z,99543.09
2022-12-18T00:48:15.858Z,99559.41
2022-12-18T00:49:19.928Z,99561.25
2022-12-18T00:50:22.559Z,99562.88
2022-12-18T00:51:24.940Z,99556.31
2022-12-18T00:52:26.610Z,99541.63
2022-12-18T00:53:28.280Z,99550.59
2022-12-18T00:54:30.013Z,99559.59
2022-12-18T00:55:33.092Z,99551.88
2022-12-18T00:56:39.359Z,99553.88
2022-12-18T00:57:47.381Z,99550.00
2022-12-18T00:58:49.407Z,99547.53
2022-12-18T00:59:51.086Z,99544.72
2022-12-18T01:00:52.797Z,99546.53
2022-12-18T01:01:54.617Z,99550.81
2022-12-18T01:02:56.414Z,99546.72
2022-12-18T01:03:58.157Z,99545.72
2022-12-18T01:04:59.829Z,99548.78
2022-12-18T01:06:07.604Z,99559.59
2022-12-18T01:07:09.258Z,99551.88
2022-12-18T01:08:11.220Z,99551.06
2022-12-18T01:09:13.183Z,99551.88
2022-12-18T01:10:15.301Z,99552.25
2022-12-18T01:11:19.038Z,99554.25
2022-12-18T01:12:20.721Z,99541.19
2022-12-18T01:13:22.454Z,99554.06
2022-12-18T01:14:24.179Z,99531.81
2022-12-18T01:15:25.877Z,99553.06
2022-12-18T01:16:27.908Z,99551.06
2022-12-18T01:17:29.697Z,99549.84
2022-12-18T01:18:31.414Z,99557.22
2022-12-18T01:19:33.254Z,99552.53
2022-12-18T01:20:34.925Z,99556.81
2022-12-18T01:21:36.611Z,99549.09
2022-12-18T01:22:38.408Z,99546.88
2022-12-18T01:23:40.668Z,99532.19
2022-12-18T01:24:42.589Z,99542.97
2022-12-18T01:25:44.268Z,99545.03
2022-12-18T01:26:45.969Z,99546.03
2022-12-18T01:27:47.614Z,99549.91
2022-12-18T01:28:49.336Z,99547.88
2022-12-18T01:29:51.037Z,99545.25
2022-12-18T01:30:52.811Z,99547.69
2022-12-18T01:31:57.236Z,99545.06
2022-12-18T01:32:58.918Z,99537.78
2022-12-18T01:34:05.320Z,99538.22
2022-12-18T01:35:07.548Z,99530.66
2022-12-18T01:36:15.193Z,99531.66
2022-12-18T01:37:16.921Z,99542.28
2022-12-18T01:38:18.879Z,99532.53
2022-12-18T01:39:20.614Z,99529.88
2022-12-18T01:40:22.733Z,99541.34
2022-12-18T01:41:27.497Z,99528.31
2022-12-18T01:42:29.204Z,99539.13
2022-12-18T01:43:51.082Z,99529.97
2022-12-18T01:45:02.131Z,99528.59
2022-12-18T01:46:04.311Z,99534.69
2022-12-18T01:47:06.402Z,99523.13
2022-12-18T01:48:09.971Z,99526.59
2022-12-18T01:49:11.766Z,99534.72
2022-12-18T01:50:23.504Z,99534.53
2022-12-18T01:51:26.848Z,99539.63
2022-12-18T01:52:32.018Z,99532.72
2022-12-18T01:53:33.715Z,99540.25
2022-12-18T01:54:35.379Z,99540.44
2022-12-18T01:55:46.009Z,99547.56
2022-12-18T01:56:47.711Z,99549.56
2022-12-18T01:57:53.507Z,99544.06
2022-12-18T01:58:59.569Z,99556.31
2022-12-18T02:00:09.713Z,99552.84
2022-12-18T02:01:11.649Z,99552.84
2022-12-18T02:02:13.911Z,99546.94
2022-12-18T02:03:16.291Z,99557.56
2022-12-18T02:04:23.848Z,99562.66
2022-12-18T02:05:50.514Z,99553.72
2022-12-18T02:07:10.632Z,99568.56
2022-12-18T02:08:38.626Z,99573.22
2022-12-18T02:09:49.698Z,99567.75
2022-12-18T02:11:45.931Z,99575.50
2022-12-18T02:13:14.848Z,99571.81
2022-12-18T02:14:16.502Z,99575.09
2022-12-18T02:15:50.334Z,99572.44
2022-12-18T02:17:19.983Z,99572.44
2022-12-18T02:18:33.645Z,99556.56
2022-12-18T02:19:57.001Z,99569.41
2022-12-18T02:21:11.771Z,99571.59
2022-12-18T02:22:30.954Z,99572.03
2022-12-18T02:24:13.937Z,99569.81
2022-12-18T02:25:50.749Z,99576.28
2022-12-18T02:26:59.489Z,99578.31
2022-12-18T02:28:06.998Z,99580.78
2022-12-18T02:29:17.465Z,99577.31
2022-12-18T02:30:20.221Z,99573.84
2022-12-18T02:31:28.390Z,99582.00
2022-12-18T02:32:35.389Z,99579.56
2022-12-18T02:33:38.703Z,99573.44
2022-12-18T02:34:41.751Z,99566.94
2022-12-18T02:35:46.829Z,99567.56
2022-12-18T02:36:51.052Z,99567.97
2022-12-18T02:37:55.507Z,99553.72
2022-12-18T02:39:00.032Z,99563.28
2022-12-18T02:40:04.638Z,99566.75
2022-12-18T02:41:07.384Z,99566.75
2022-12-18T02:42:09.239Z,99568.97
2022-12-18T02:43:13.039Z,99571.44
2022-12-18T02:44:15.525Z,99567.34
2022-12-18T02:45:17.510Z,99570.63
2022-12-18T02:46:51.321Z,99572.44
2022-12-18T02:47:53.023Z,99564.69
2022-12-18T02:49:04.174Z,99562.50
2022-12-18T02:50:19.239Z,99564.94
2022-12-18T02:51:53.089Z,99556.19
2022-12-18T02:53:39.927Z,99562.88
2022-12-18T02:55:01.680Z,99566.75
2022-12-18T02:56:12.119Z,99564.69
2022-12-18T02:57:49.187Z,99570.53
2022-12-18T02:59:01.768Z,99568.06
2022-12-18T03:00:39.221Z,99568.47
2022-12-18T03:01:56.682Z,99565.59
2022-12-18T03:03:32.451Z,99572.50
2022-12-18T03:05:03.050Z,99571.06
2022-12-18T03:06:13.887Z,99572.88
2022-12-18T03:07:24.744Z,99566.97
2022-12-18T03:08:32.637Z,99574.69
2022-12-18T03:09:39.493Z,99566.78
2022-12-18T03:10:46.627Z,99573.69
2022-12-18T03:12:15.526Z,99567.22
2022-12-18T03:13:29.414Z,99574.13
2022-12-18T03:14:35.223Z,99574.13
2022-12-18T03:15:44.100Z,99574.13
2022-12-18T03:16:48.528Z,99571.69
2022-12-18T03:17:57.875Z,99571.88
2022-12-18T03:19:03.929Z,99579.22
2022-12-18T03:20:13.745Z,99585.34
2022-12-18T03:21:20.550Z,99584.72
2022-12-18T03:22:24.784Z,99587.50
2022-12-18T03:23:30.605Z,99592.91
2022-12-18T03:24:34.383Z,99583.66
2022-12-18T03:25:39.542Z,99584.38
2022-12-18T03:26:45.716Z,99589.91
2022-12-18T03:27:52.531Z,99595.59
2022-12-18T03:28:58.729Z,99591.16
2022-12-18T03:30:08.466Z,99592.97
2022-12-18T03:31:12.638Z,99590.66
2022-12-18T03:32:29.015Z,99599.94
2022-12-18T03:33:42.595Z,99602.59
2022-12-18T03:34:47.099Z,99598.00
2022-12-18T03:35:49.126Z,99601.44
2022-12-18T03:36:50.841Z,99602.44
2022-12-18T03:37:52.849Z,99607.34
2022-12-18T03:38:54.628Z,99599.44
2022-12-18T03:39:56.449Z,99610.09
2022-12-18T03:41:16.449Z,99608.63
2022-12-18T03:42:42.416Z,99612.72
2022-12-18T03:43:49.755Z,99614.53
2022-12-18T03:45:15.119Z,99611.91
2022-12-18T03:46:23.181Z,99612.78
2022-12-18T03:47:42.879Z,99621.31
2022-12-18T03:48:56.831Z,99620.69
2022-12-18T03:50:11.087Z,99619.50
2022-12-18T03:51:35.251Z,99607.50
2022-12-18T03:53:09.001Z,99627.88
2022-12-18T03:54:12.823Z,99626.88
2022-12-18T03:55:14.737Z,99633.56
2022-12-18T03:56:18.537Z,99630.13
2022-12-18T03:57:23.160Z,99632.84
2022-12-18T03:58:27.818Z,99608.94
2022-12-18T03:59:30.743Z,99636.53
2022-12-18T04:00:34.108Z,99634.72
2022-12-18T04:01:42.994Z,99628.88
2022-12-18T04:02:50.804Z,99640.69
2022-12-18T04:03:53.538Z,99641.50
2022-12-18T04:04:59.350Z,99646.81
2022-12-18T04:06:02.125Z,99639.25
2022-12-18T04:07:05.359Z,99646.41
2022-12-18T04:08:07.175Z,99643.97
2022-12-18T04:09:09.266Z,99651.25
2022-12-18T04:10:12.895Z,99640.69
2022-12-18T04:11:14.604Z,99646.41
2022-12-18T04:12:16.334Z,99639.69
2022-12-18T04:13:28.672Z,99647.84
2022-12-18T04:14:30.380Z,99644.19
2022-12-18T04:15:35.746Z,99648.09
2022-12-18T04:16:37.511Z,99647.28
2022-12-18T04:17:40.133Z,99649.56
2022-12-18T04:18:41.837Z,99645.41
2022-12-18T04:19:43.621Z,99648.03
2022-12-18T04:20:45.290Z,99645.03
2022-12-18T04:21:46.959Z,99650.50
2022-12-18T04:22:49.239Z,99648.84
2022-12-18T04:23:51.120Z,99646.34
2022-12-18T04:24:52.789Z,99647.22
2022-12-18T04:25:54.446Z,99650.50
2022-12-18T04:26:56.139Z,99646.84
2022-12-18T04:27:57.800Z,99665.09
2022-12-18T04:28:59.446Z,99659.59
2022-12-18T04:30:01.143Z,99652.28
2022-12-18T04:31:03.557Z,99660.44
2022-12-18T04:32:05.447Z,99659.06
2022-12-18T04:33:14.675Z,99660.81
2022-12-18T04:34:16.465Z,99657.38
2022-12-18T04:35:18.160Z,99653.66
2022-12-18T04:36:20.144Z,99660.81
2022-12-18T04:37:21.833Z,99670.38
2022-12-18T04:38:23.558Z,99672.03
2022-12-18T04:39:25.432Z,99670.38
2022-12-18T04:40:27.793Z,99672.22
2022-12-18T04:41:29.505Z,99677.69
2022-12-18T04:42:31.188Z,99673.41
2022-12-18T04:43:34.014Z,99678.09
2022-12-18T04:44:35.654Z,99674.22
2022-12-18T04:45:37.368Z,99673.22
2022-12-18T04:46:39.310Z,99680.94
2022-12-18T04:47:41.013Z,99674.22
2022-12-18T04:48:42.683Z,99683.19
2022-12-18T04:49:44.351Z,99683.38
2022-12-18T04:50:46.038Z,99682.59
2022-12-18T04:51:47.761Z,99680.94
2022-12-18T04:52:49.466Z,99687.47
2022-12-18T04:53:51.135Z,99691.13
2022-12-18T04:54:52.846Z,99681.38
2022-12-18T04:56:11.692Z,99681.13
2022-12-18T04:57:13.505Z,99682.97
2022-12-18T04:58:15.215Z,99687.78
2022-12-18T04:59:17.041Z,99693.44
2022-12-18T05:00:18.934Z,99690.47
2022-12-18T05:01:20.788Z,99697.78
2022-12-18T05:02:22.730Z,99694.06
2022-12-18T05:03:24.535Z,99691.44
2022-12-18T05:04:26.366Z,99700.81
2022-12-18T05:05:28.168Z,99686.25
2022-12-18T05:06:29.926Z,99698.06
2022-12-18T05:07:31.793Z,99699.66
2022-12-18T05:08:33.655Z,99702.91
2022-12-18T05:09:35.664Z,99710.63
2022-12-18T05:10:38.503Z,99710.00
2022-12-18T05:11:40.281Z,99705.53
2022-12-18T05:12:59.320Z,99709.56
2022-12-18T05:14:02.007Z,99710.75
2022-12-18T05:15:03.960Z,99712.28
2022-12-18T05:16:06.701Z,99720.00
2022-12-18T05:17:08.694Z,99718.56
2022-12-18T05:18:10.440Z,99718.38
2022-12-18T05:19:12.569Z,99717.19
2022-12-18T05:20:14.978Z,99727.31
2022-12-18T05:21:16.687Z,99729.94
2022-12-18T05:22:18.436Z,99731.75
2022-12-18T05:23:21.868Z,99733.41
2022-12-18T05:24:23.547Z,99730.50
2022-12-18T05:25:25.354Z,99739.50
2022-12-18T05:26:27.052Z,99743.78
2022-12-18T05:27:28.723Z,99741.78
2022-12-18T05:28:32.150Z,99734.34
2022-12-18T05:29:33.859Z,99740.06
2022-12-18T05:30:35.522Z,99736.16
2022-12-18T05:31:39.917Z,99734.06
2022-12-18T05:32:41.816Z,99752.44
2022-12-18T05:33:43.968Z,99742.97
2022-12-18T05:34:45.885Z,99748.53
2022-12-18T05:35:55.794Z,99748.25
2022-12-18T05:36:57.447Z,99747.00
2022-12-18T05:37:59.128Z,99750.72
2022-12-18T05:39:01.603Z,99747.44
2022-12-18T05:40:05.799Z,99729.97
2022-12-18T05:41:08.488Z,99757.81
2022-12-18T05:42:10.905Z,99757.19
2022-12-18T05:43:16.540Z,99762.44
2022-12-18T05:44:21.144Z,99751.66
2022-12-18T05:45:22.829Z,99760.94
2022-12-18T05:46:25.417Z,99770.16
2022-12-18T05:47:28.325Z,99770.81
2022-12-18T05:48:29.980Z,99766.72
2022-12-18T05:49:31.672Z,99771.47
2022-12-18T05:50:41.152Z,99766.91
2022-12-18T05:51:42.809Z,99778.09
2022-12-18T05:52:44.485Z,99778.09
2022-12-18T05:53:46.769Z,99785.38
2022-12-18T05:54:48.460Z,99785.38
2022-12-18T05:55:50.348Z,99776.81
2022-12-18T05:56:52.056Z,99790.56
2022-12-18T05:57:53.740Z,99783.81
2022-12-18T05:58:55.562Z,99784.28
2022-12-18T05:59:57.302Z,99786.63
2022-12-18T06:01:06.668Z,99783.47
2022-12-18T06:02:09.011Z,99791.38
2022-12-18T06:03:12.845Z,99788.91
2022-12-18T06:04:14.744Z,99793.19
2022-12-18T06:05:16.466Z,99794.38
2022-12-18T06:06:24.551Z,99797.19
2022-12-18T06:07:26.211Z,99781.56
2022-12-18T06:08:27.940Z,99793.84
2022-12-18T06:09:30.455Z,99789.38
2022-12-18T06:10:32.457Z,99786.47
2022-12-18T06:11:34.119Z,99798.28
2022-12-18T06:12:35.871Z,99786.09
2022-12-18T06:13:38.506Z,99799.13
2022-12-18T06:14:40.435Z,99789.56
2022-12-18T06:15:42.120Z,99799.19
2022-12-18T06:16:43.875Z,99794.13
2022-12-18T06:17:45.607Z,99804.47
2022-12-18T06:18:48.210Z,99796.75
2022-12-18T06:19:49.896Z,99808.75
2022-12-18T06:20:59.034Z,99808.75
2022-12-18T06:22:00.858Z,99811.88
2022-12-18T06:23:02.532Z,99805.13
2022-12-18T06:24:04.383Z,99811.06
2022-12-18T06:25:07.094Z,99810.06
2022-12-18T06:26:12.668Z,99819.09
2022-12-18T06:27:14.615Z,99812.00
2022-12-18T06:28:16.341Z,99821.81
2022-12-18T06:29:18.023Z,99817.34
2022-12-18T06:30:19.913Z,99816.34
2022-12-18T06:31:21.732Z,99821.81
2022-12-18T06:32:23.478Z,99833.66
2022-12-18T06:33:28.654Z,99826.56
2022-12-18T06:34:30.325Z,99832.91
2022-12-18T06:35:33.294Z,99835.38
2022-12-18T06:36:35.030Z,99840.47
2022-12-18T06:37:36.755Z,99833.91
2022-12-18T06:38:40.383Z,99837.81
2022-12-18T06:39:42.210Z,99843.09
2022-12-18T06:40:43.877Z,99837.38
2022-12-18T06:41:45.827Z,99838.38
2022-12-18T06:42:47.655Z,99843.09
2022-12-18T06:43:49.616Z,99843.94
2022-12-18T06:44:51.552Z,99843.56
2022-12-18T06:46:00.189Z,99852.50
2022-12-18T06:47:01.927Z,99854.78
2022-12-18T06:48:03.681Z,99857.03
2022-12-18T06:49:05.391Z,99851.75
2022-12-18T06:50:07.599Z,99847.28
2022-12-18T06:51:09.710Z,99855.03
2022-12-18T06:52:11.379Z,99854.38
2022-12-18T06:53:13.294Z,99847.03
2022-12-18T06:54:14.970Z,99848.75
2022-12-18T06:55:16.771Z,99855.84
2022-12-18T06:56:18.479Z,99859.13
2022-12-18T06:57:20.147Z,99861.66
2022-12-18T06:58:21.817Z,99861.03
2022-12-18T06:59:23.570Z,99851.38
2022-12-18T07:00:25.292Z,99862.41
2022-12-18T07:01:27.406Z,99857.59
2022-12-18T07:02:29.251Z,99867.69
2022-12-18T07:03:31.627Z,99864.06
2022-12-18T07:04:33.295Z,99860.84
2022-12-18T07:05:35.232Z,99865.75
2022-12-18T07:06:36.911Z,99863.06
2022-12-18T07:07:38.613Z,99867.41
2022-12-18T07:08:40.381Z,99866.59
2022-12-18T07:09:42.049Z,99864.41
2022-12-18T07:10:47.553Z,99869.88
2022-12-18T07:11:50.725Z,99862.31
2022-12-18T07:12:52.420Z,99874.16
2022-12-18T07:13:54.384Z,99876.03
2022-12-18T07:14:56.232Z,99879.69
2022-12-18T07:16:06.825Z,99874.41
2022-12-18T07:17:11.536Z,99873.56
2022-12-18T07:18:13.284Z,99873.78
2022-12-18T07:19:15.610Z,99879.25
2022-12-18T07:20:17.303Z,99881.06
2022-12-18T07:21:20.428Z,99884.53
2022-12-18T07:22:22.675Z,99871.97
2022-12-18T07:23:24.357Z,99879.50
2022-12-18T07:24:26.287Z,99881.91
2022-12-18T07:25:27.941Z,99861.31
2022-12-18T07:26:29.625Z,99879.34
2022-12-18T07:27:31.296Z,99884.53
2022-12-18T07:28:34.509Z,99890.63
2022-12-18T07:29:36.264Z,99891.91
2022-12-18T07:30:39.474Z,99885.00
2022-12-18T07:31:41.446Z,99881.06
2022-12-18T07:32:43.225Z,99891.53
2022-12-18T07:33:46.177Z,99896.28
2022-12-18T07:34:47.933Z,99904.03
2022-12-18T07:35:49.598Z,99892.19
2022-12-18T07:36:51.249Z,99896.47
2022-12-18T07:37:52.914Z,99895.38
2022-12-18T07:38:54.749Z,99893.56
2022-12-18T07:39:56.500Z,99903.03
2022-12-18T07:41:09.908Z,99899.44
2022-12-18T07:42:30.530Z,99895.28
2022-12-18T07:43:32.437Z,99902.84
2022-12-18T07:44:34.298Z,99910.75
2022-12-18T07:45:35.978Z,99913.75
2022-12-18T07:46:37.857Z,99910.47
2022-12-18T07:47:39.595Z,99897.84
2022-12-18T07:48:42.893Z,99905.09
2022-12-18T07:49:46.466Z,99899.00
2022-12-18T07:50:48.361Z,99913.41
2022-12-18T07:51:50.267Z,99909.94
2022-12-18T07:52:52.048Z,99897.09
2022-12-18T07:53:53.752Z,99919.22
2022-12-18T07:54:55.504Z,99913.75
2022-12-18T07:56:25.350Z,99916.69
2022-12-18T07:57:41.879Z,99915.31
2022-12-18T07:58:42.146Z,99916.22
2022-12-18T07:59:43.975Z,99915.41
2022-12-18T08:00:45.647Z,99916.22
2022-12-18T08:01:47.451Z,99926.25
2022-12-18T08:02:49.296Z,99925.69
2022-12-18T08:03:52.168Z,99925.50
2022-12-18T08:04:55.095Z,99923.16
2022-12-18T08:06:01.250Z,99919.94
2022-12-18T08:07:03.086Z,99919.75
2022-12-18T08:08:04.859Z,99926.03
2022-12-18T08:09:06.727Z,99920.59
2022-12-18T08:10:08.792Z,99924.69
2022-12-18T08:11:10.496Z,99921.88
2022-12-18T08:12:12.165Z,99924.34
2022-12-18T08:13:13.837Z,99928.63
2022-12-18T08:14:15.862Z,99922.88
2022-12-18T08:15:17.941Z,99928.69
2022-12-18T08:16:20.224Z,99928.50
2022-12-18T08:17:22.490Z,99935.53
2022-12-18T08:18:24.248Z,99938.19
2022-12-18T08:19:26.012Z,99944.72
2022-12-18T08:20:27.786Z,99948.38
2022-12-18T08:21:32.449Z,99944.19
2022-12-18T08:22:38.029Z,99946.00
2022-12-18T08:23:43.328Z,99946.81
2022-12-18T08:24:46.055Z,99945.13
2022-12-18T08:25:48.159Z,99956.94
2022-12-18T08:27:06.636Z,99952.28
2022-12-18T08:28:12.060Z,99957.22
2022-12-18T08:29:17.332Z,99960.84
2022-12-18T08:30:23.242Z,99950.75
2022-12-18T08:31:25.837Z,99964.59
2022-12-18T08:32:29.028Z,99962.78
2022-12-18T08:33:30.800Z,99956.69
2022-12-18T08:34:32.486Z,99962.66
2022-12-18T08:35:42.506Z,99955.38
2022-12-18T08:36:47.242Z,99959.84
2022-12-18T08:37:48.914Z,99949.81
2022-12-18T08:38:50.664Z,99955.50
2022-12-18T08:39:52.932Z,99954.09
2022-12-18T08:41:01.765Z,99943.72
2022-12-18T08:42:22.420Z,99953.09
2022-12-18T08:43:42.937Z,99950.47
2022-12-18T08:44:44.804Z,99944.47
2022-12-18T08:45:46.634Z,99939.91
2022-12-18T08:46:48.416Z,99952.75
2022-12-18T08:47:50.075Z,99941.72
2022-12-18T08:48:52.771Z,99949.94
2022-12-18T08:49:54.507Z,99944.28
2022-12-18T08:51:00.678Z,99950.66
2022-12-18T08:52:03.808Z,99944.72
2022-12-18T08:53:05.708Z,99953.28
2022-12-18T08:54:08.018Z,99951.66
2022-12-18T08:55:10.773Z,99938.00
2022-12-18T08:56:13.555Z,99947.28
2022-12-18T08:57:15.243Z,99928.88
2022-12-18T08:58:17.054Z,99936.91
2022-12-18T08:59:20.212Z,99936.25
2022-12-18T09:00:22.547Z,99932.78
2022-12-18T09:01:24.837Z,99935.44
2022-12-18T09:02:26.741Z,99935.91
2022-12-18T09:03:28.721Z,99934.16
2022-12-18T09:04:30.464Z,99927.22
2022-12-18T09:05:32.135Z,99914.06
2022-12-18T09:06:33.785Z,99929.06
2022-12-18T09:07:35.695Z,99937.44
2022-12-18T09:08:40.792Z,99940.72
2022-12-18T09:09:42.751Z,99938.25
2022-12-18T09:10:45.770Z,99936.09
2022-12-18T09:11:47.565Z,99937.78
2022-12-18T09:12:49.248Z,99938.09
2022-12-18T09:13:52.157Z,99940.53
2022-12-18T09:14:53.897Z,99927.22
2022-12-18T09:15:56.883Z,99944.09
2022-12-18T09:16:58.738Z,99940.63
2022-12-18T09:18:00.464Z,99937.97
2022-12-18T09:19:03.660Z,99948.00
2022-12-18T09:20:05.781Z,99942.09
2022-12-18T09:21:12.770Z,99936.78
2022-12-18T09:22:14.564Z,99949.19
2022-12-18T09:23:16.235Z,99947.28
2022-12-18T09:24:18.771Z,99951.66
2022-12-18T09:25:20.463Z,99951.66
2022-12-18T09:26:23.548Z,99950.66
2022-12-18T09:27:25.216Z,99947.38
2022-12-18T09:28:27.208Z,99938.63
2022-12-18T09:29:29.521Z,99945.91
2022-12-18T09:30:31.409Z,99948.53
2022-12-18T09:31:34.527Z,99951.19
2022-12-18T09:32:36.193Z,99948.34
2022-12-18T09:33:37.960Z,99951.28
2022-12-18T09:34:40.017Z,99951.72
2022-12-18T09:35:43.762Z,99948.25
2022-12-18T09:36:45.461Z,99953.53
2022-12-18T09:37:47.509Z,99942.72
2022-12-18T09:38:49.212Z,99948.88
2022-12-18T09:39:50.869Z,99952.53
2022-12-18T09:40:55.107Z,99947.63
2022-12-18T09:41:59.417Z,99952.75
2022-12-18T09:43:05.698Z,99954.75
2022-12-18T09:44:21.591Z,99952.53
2022-12-18T09:45:24.619Z,99944.22
2022-12-18T09:46:35.101Z,99952.09
2022-12-18T09:47:40.388Z,99949.81
2022-12-18T09:48:45.644Z,99943.41
2022-12-18T09:49:51.218Z,99954.72
2022-12-18T09:51:01.146Z,99955.50
2022-12-18T09:52:15.706Z,99949.69
2022-12-18T09:53:23.706Z,99950.22
2022-12-18T09:54:32.945Z,99951.50
2022-12-18T09:55:47.067Z,99954.78
2022-12-18T09:56:49.429Z,99958.91
2022-12-18T09:57:57.576Z,99951.31
2022-12-18T09:59:01.045Z,99940.47
2022-12-18T10:00:21.593Z,99954.78
2022-12-18T10:01:24.233Z,99949.69
2022-12-18T10:02:28.233Z,99942.56
2022-12-18T10:03:30.001Z,99949.69
2022-12-18T10:04:32.982Z,99950.97
2022-12-18T10:05:50.887Z,99944.66
2022-12-18T10:07:02.038Z,99940.75
2022-12-18T10:08:33.583Z,99952.25
2022-12-18T10:09:41.765Z,99941.41
2022-12-18T10:10:49.138Z,99947.78
2022-12-18T10:12:00.794Z,99947.34
2022-12-18T10:13:39.847Z,99948.34
2022-12-18T10:15:16.767Z,99947.72
2022-12-18T10:16:43.509Z,99950.00
2022-12-18T10:18:03.754Z,99943.72
2022-12-18T10:19:05.351Z,99945.25
2022-12-18T10:20:25.638Z,99939.78
2022-12-18T10:21:39.040Z,99949.19
2022-12-18T10:23:04.356Z,99935.16
2022-12-18T10:24:15.312Z,99945.34
2022-12-18T10:25:16.956Z,99943.72
2022-12-18T10:26:18.912Z,99931.31
2022-12-18T10:27:27.264Z,99947.25
2022-12-18T10:28:31.695Z,99941.53
2022-12-18T10:29:33.520Z,99946.72
2022-12-18T10:30:35.244Z,99950.00
2022-12-18T10:31:37.197Z,99944.72
2022-12-18T10:32:39.067Z,99942.34
2022-12-18T10:33:42.351Z,99946.88
2022-12-18T10:34:48.159Z,99942.22
2022-12-18T10:35:53.637Z,99943.69
2022-12-18T10:36:55.297Z,99942.06
2022-12-18T10:38:22.933Z,99941.78
2022-12-18T10:39:28.901Z,99944.81
2022-12-18T10:40:31.272Z,99944.34
2022-12-18T10:41:33.439Z,99942.25
2022-12-18T10:42:35.320Z,99944.06
2022-12-18T10:43:39.136Z,99952.00
2022-12-18T10:44:40.787Z,99946.47
2022-12-18T10:45:44.423Z,99945.81
2022-12-18T10:46:49.027Z,99958.69
2022-12-18T10:47:51.113Z,99966.69
2022-12-18T10:48:57.215Z,99958.47
2022-12-18T10:49:59.225Z,99958.84
2022-12-18T10:51:10.831Z,99959.28
2022-12-18T10:52:23.918Z,99956.47
2022-12-18T10:53:31.836Z,99958.69
2022-12-18T10:54:34.939Z,99975.97
2022-12-18T10:55:41.143Z,99961.31
2022-12-18T10:56:43.698Z,99962.09
2022-12-18T10:57:46.159Z,99969.50
2022-12-18T10:58:58.120Z,99975.59
2022-12-18T11:00:14.423Z,99970.84
2022-12-18T11:01:21.215Z,99978.63
2022-12-18T11:02:37.151Z,99976.59
2022-12-18T11:03:41.991Z,99976.72
2022-12-18T11:04:52.677Z,99978.72
2022-12-18T11:06:05.406Z,99986.66
2022-12-18T11:07:09.533Z,99990.19
2022-12-18T11:08:23.861Z,99983.19
2022-12-18T11:09:32.522Z,99983.81
2022-12-18T11:10:38.899Z,99992.38
2022-12-18T11:11:40.575Z,99986.66
2022-12-18T11:12:42.271Z,99994.75
2022-12-18T11:13:59.934Z,99994.56
2022-12-18T11:15:01.672Z,99997.56
2022-12-18T11:16:03.456Z,100008.16
2022-12-18T11:18:34.433Z,100003.31
2022-12-18T11:19:39.917Z,100016.53
2022-12-18T11:20:42.260Z,100009.31
2022-12-18T11:21:44.173Z,100013.25
2022-12-18T11:22:57.299Z,100000.84
2022-12-18T11:23:59.136Z,100005.59
2022-12-18T11:25:31.256Z,100008.03
2022-12-18T11:26:36.952Z,99996.84
2022-12-18T11:27:40.813Z,100014.97
2022-12-18T11:28:51.755Z,100011.16
2022-12-18T11:29:53.602Z,100010.97
2022-12-18T11:31:22.281Z,100014.72
2022-12-18T11:32:48.234Z,100013.91
2022-12-18T11:34:30.645Z,100006.16
2022-12-18T11:35:57.081Z,100018.06
2022-12-18T11:37:00.891Z,100017.19
2022-12-18T11:38:32.259Z,100009.97
2022-12-18T11:39:41.828Z,100005.16
2022-12-18T11:40:46.765Z,100002.78
2022-12-18T11:42:12.880Z,100012.34
2022-12-18T11:43:23.003Z,100017.69
2022-12-18T11:44:39.543Z,100014.97
2022-12-18T11:45:54.935Z,100015.78
2022-12-18T11:47:04.342Z,100017.06
2022-12-18T11:48:10.360Z,100021.16
2022-12-18T11:49:14.941Z,100024.44
2022-12-18T11:50:53.709Z,100025.63
2022-12-18T11:52:26.100Z,100026.78
2022-12-18T11:53:28.880Z,100021.72
2022-12-18T11:54:30.576Z,100022.81
2022-12-18T11:55:49.003Z,100026.34
2022-12-18T11:57:05.498Z,100030.69
2022-12-18T11:58:31.152Z,100035.28
2022-12-18T12:00:16.046Z,100027.88
2022-12-18T12:01:49.854Z,100030.66
2022-12-18T12:03:16.092Z,100028.00
2022-12-18T12:05:02.925Z,100021.34
2022-12-18T12:06:11.654Z,100021.16
2022-12-18T12:07:16.695Z,100023.28
2022-12-18T12:08:50.584Z,100018.00
2022-12-18T12:09:52.194Z,100021.44
2022-12-18T12:11:24.378Z,100018.81
2022-12-18T12:12:48.552Z,100024.16
2022-12-18T12:14:11.364Z,100019.72
2022-12-18T12:15:25.310Z,100026.63
2022-12-18T12:16:45.071Z,100024.81
2022-12-18T12:17:51.422Z,100027.47
2022-12-18T12:19:34.795Z,100021.91
2022-12-18T12:20:45.020Z,100026.72
2022-12-18T12:21:52.353Z,100027.91
2022-12-18T12:23:03.955Z,100018.16
2022-12-18T12:24:30.715Z,100022.28
2022-12-18T12:25:43.027Z,100019.63
2022-12-18T12:27:15.224Z,100027.38
2022-12-18T12:28:38.653Z,100023.75
2022-12-18T12:29:43.283Z,100025.81
2022-12-18T12:31:05.199Z,100028.47
2022-12-18T12:32:12.836Z,100031.84
2022-12-18T12:33:38.015Z,100036.31
2022-12-18T12:35:01.741Z,100039.66
2022-12-18T12:36:12.416Z,100040.22
2022-12-18T12:37:14.089Z,100036.94
2022-12-18T12:38:24.894Z,100041.56
2022-12-18T12:39:39.301Z,100046.84
2022-12-18T12:40:55.170Z,100035.16
2022-12-18T12:42:19.229Z,100049.13
2022-12-18T12:43:27.919Z,100045.19
2022-12-18T12:44:44.370Z,100048.38
2022-12-18T12:45:55.733Z,100047.03
2022-12-18T12:47:01.727Z,100041.25
2022-12-18T12:48:08.285Z,100042.81
2022-12-18T12:49:18.049Z,100056.28
2022-12-18T12:50:22.763Z,100058.13
2022-12-18T12:51:29.354Z,100047.38
2022-12-18T12:52:53.926Z,100058.06
2022-12-18T12:53:58.541Z,100055.69
2022-12-18T12:55:02.067Z,100058.41
2022-12-18T12:56:05.509Z,100066.84
2022-12-18T12:57:31.879Z,100054.03
2022-12-18T12:58:42.623Z,100060.06
2022-12-18T13:00:09.511Z,100071.78
2022-12-18T13:01:24.299Z,100069.44